sensor_id;sensor_type;location;lat;lon;timestamp;P1;durP1;ratioP1;P2;durP2;ratioP2
54959;SDS011;40860;51.710;8.736;2022-12-07T00:00:50;55.95;;;29.35;;
54959;SDS011;40860;51.710;8.736;2022-12-07T00:04:54;56.25;;;30.30;;
54959;SDS011;40860;51.710;8.736;2022-12-07T00:08:57;58.90;;;30.00;;
54959;SDS011;40860;51.710;8.736;2022-12-07T00:13:01;61.33;;;31.02;;
54959;SDS011;40860;51.710;8.736;2022-12-07T00:17:04;63.53;;;32.20;;
54959;SDS011;40860;51.710;8.736;2022-12-07T00:21:09;60.58;;;31.70;;
54959;SDS011;40860;51.710;8.736;2022-12-07T00:25:13;68.50;;;31.40;;
54959;SDS011;40860;51.710;8.736;2022-12-07T00:29:17;66.47;;;32.20;;
54959;SDS011;40860;51.710;8.736;2022-12-07T00:33:21;68.22;;;34.15;;
54959;SDS011;40860;51.710;8.736;2022-12-07T00:37:25;67.32;;;34.40;;
54959;SDS011;40860;51.710;8.736;2022-12-07T00:41:28;68.30;;;33.85;;
54959;SDS011;40860;51.710;8.736;2022-12-07T00:45:32;79.43;;;34.67;;
54959;SDS011;40860;51.710;8.736;2022-12-07T00:49:35;71.55;;;34.95;;
54959;SDS011;40860;51.710;8.736;2022-12-07T00:53:39;69.78;;;35.78;;
54959;SDS011;40860;51.710;8.736;2022-12-07T00:57:42;72.00;;;34.85;;
54959;SDS011;40860;51.710;8.736;2022-12-07T01:01:45;70.10;;;35.20;;
54959;SDS011;40860;51.710;8.736;2022-12-07T01:05:49;71.78;;;35.00;;
54959;SDS011;40860;51.710;8.736;2022-12-07T01:09:54;62.17;;;31.73;;
54959;SDS011;40860;51.710;8.736;2022-12-07T01:13:57;66.20;;;33.90;;
54959;SDS011;40860;51.710;8.736;2022-12-07T01:18:01;71.25;;;35.08;;
54959;SDS011;40860;51.710;8.736;2022-12-07T01:22:04;65.97;;;34.58;;
54959;SDS011;40860;51.710;8.736;2022-12-07T01:26:09;65.55;;;32.53;;
54959;SDS011;40860;51.710;8.736;2022-12-07T01:30:14;66.50;;;33.50;;
54959;SDS011;40860;51.710;8.736;2022-12-07T01:34:17;64.47;;;33.40;;
54959;SDS011;40860;51.710;8.736;2022-12-07T01:38:20;67.05;;;34.60;;
54959;SDS011;40860;51.710;8.736;2022-12-07T01:42:24;60.90;;;32.58;;
54959;SDS011;40860;51.710;8.736;2022-12-07T01:46:27;61.85;;;32.08;;
54959;SDS011;40860;51.710;8.736;2022-12-07T01:50:29;60.78;;;32.13;;
54959;SDS011;40860;51.710;8.736;2022-12-07T01:54:33;58.30;;;30.52;;
54959;SDS011;40860;51.710;8.736;2022-12-07T01:58:38;55.67;;;30.88;;
54959;SDS011;40860;51.710;8.736;2022-12-07T02:02:43;59.15;;;31.33;;
54959;SDS011;40860;51.710;8.736;2022-12-07T02:06:49;50.13;;;29.58;;
54959;SDS011;40860;51.710;8.736;2022-12-07T02:10:54;55.80;;;30.65;;
54959;SDS011;40860;51.710;8.736;2022-12-07T02:15:00;54.95;;;31.52;;
54959;SDS011;40860;51.710;8.736;2022-12-07T02:19:12;53.47;;;31.23;;
54959;SDS011;40860;51.710;8.736;2022-12-07T02:23:40;47.53;;;28.13;;
54959;SDS011;40860;51.710;8.736;2022-12-07T02:27:52;53.38;;;28.98;;
54959;SDS011;40860;51.710;8.736;2022-12-07T02:32:06;45.95;;;28.17;;
54959;SDS011;40860;51.710;8.736;2022-12-07T02:36:16;48.45;;;27.38;;
54959;SDS011;40860;51.710;8.736;2022-12-07T02:40:25;44.72;;;27.63;;
54959;SDS011;40860;51.710;8.736;2022-12-07T02:44:33;43.15;;;26.63;;
54959;SDS011;40860;51.710;8.736;2022-12-07T02:48:38;44.13;;;26.98;;
54959;SDS011;40860;51.710;8.736;2022-12-07T02:52:43;42.45;;;26.67;;
54959;SDS011;40860;51.710;8.736;2022-12-07T02:56:48;37.80;;;24.67;;
54959;SDS011;40860;51.710;8.736;2022-12-07T03:00:56;38.92;;;24.77;;
54959;SDS011;40860;51.710;8.736;2022-12-07T03:05:12;41.00;;;24.80;;
54959;SDS011;40860;51.710;8.736;2022-12-07T03:09:22;40.13;;;24.35;;
54959;SDS011;40860;51.710;8.736;2022-12-07T03:13:32;35.65;;;23.15;;
54959;SDS011;40860;51.710;8.736;2022-12-07T03:17:38;33.88;;;21.90;;
54959;SDS011;40860;51.710;8.736;2022-12-07T03:21:46;34.92;;;22.83;;
54959;SDS011;40860;51.710;8.736;2022-12-07T03:25:54;35.50;;;21.10;;
54959;SDS011;40860;51.710;8.736;2022-12-07T03:30:02;34.15;;;20.52;;
54959;SDS011;40860;51.710;8.736;2022-12-07T03:34:09;30.23;;;19.40;;
54959;SDS011;40860;51.710;8.736;2022-12-07T03:38:17;29.08;;;18.73;;
54959;SDS011;40860;51.710;8.736;2022-12-07T03:42:24;26.50;;;18.08;;
54959;SDS011;40860;51.710;8.736;2022-12-07T03:46:28;26.88;;;17.05;;
54959;SDS011;40860;51.710;8.736;2022-12-07T03:50:38;27.08;;;16.15;;
54959;SDS011;40860;51.710;8.736;2022-12-07T03:54:48;24.73;;;16.52;;
54959;SDS011;40860;51.710;8.736;2022-12-07T03:58:57;24.08;;;15.68;;
54959;SDS011;40860;51.710;8.736;2022-12-07T04:03:00;27.25;;;16.35;;
54959;SDS011;40860;51.710;8.736;2022-12-07T04:07:03;23.10;;;16.27;;
54959;SDS011;40860;51.710;8.736;2022-12-07T04:11:07;23.25;;;16.80;;
54959;SDS011;40860;51.710;8.736;2022-12-07T04:15:10;25.55;;;16.17;;
54959;SDS011;40860;51.710;8.736;2022-12-07T04:19:14;20.63;;;14.40;;
54959;SDS011;40860;51.710;8.736;2022-12-07T04:23:17;19.58;;;13.50;;
54959;SDS011;40860;51.710;8.736;2022-12-07T04:27:21;21.80;;;12.70;;
54959;SDS011;40860;51.710;8.736;2022-12-07T04:31:24;19.98;;;12.10;;
54959;SDS011;40860;51.710;8.736;2022-12-07T04:35:27;18.05;;;12.27;;
54959;SDS011;40860;51.710;8.736;2022-12-07T04:39:31;16.98;;;11.73;;
54959;SDS011;40860;51.710;8.736;2022-12-07T04:43:36;18.08;;;10.13;;
54959;SDS011;40860;51.710;8.736;2022-12-07T04:47:39;17.83;;;10.70;;
54959;SDS011;40860;51.710;8.736;2022-12-07T04:51:42;16.25;;;9.80;;
54959;SDS011;40860;51.710;8.736;2022-12-07T04:55:46;18.80;;;10.70;;
54959;SDS011;40860;51.710;8.736;2022-12-07T04:59:50;18.55;;;11.60;;
54959;SDS011;40860;51.710;8.736;2022-12-07T05:03:53;21.55;;;12.55;;
54959;SDS011;40860;51.710;8.736;2022-12-07T05:07:56;18.27;;;11.95;;
54959;SDS011;40860;51.710;8.736;2022-12-07T05:11:59;24.48;;;14.05;;
54959;SDS011;40860;51.710;8.736;2022-12-07T05:16:03;22.40;;;14.15;;
54959;SDS011;40860;51.710;8.736;2022-12-07T05:20:07;19.90;;;14.10;;
54959;SDS011;40860;51.710;8.736;2022-12-07T05:24:12;21.35;;;13.43;;
54959;SDS011;40860;51.710;8.736;2022-12-07T05:28:17;24.73;;;14.82;;
54959;SDS011;40860;51.710;8.736;2022-12-07T05:32:21;26.38;;;14.52;;
54959;SDS011;40860;51.710;8.736;2022-12-07T05:36:24;32.25;;;18.13;;
54959;SDS011;40860;51.710;8.736;2022-12-07T05:40:29;23.77;;;14.85;;
54959;SDS011;40860;51.710;8.736;2022-12-07T05:44:33;24.80;;;14.57;;
54959;SDS011;40860;51.710;8.736;2022-12-07T05:48:37;23.65;;;15.27;;
54959;SDS011;40860;51.710;8.736;2022-12-07T05:52:40;23.58;;;14.93;;
54959;SDS011;40860;51.710;8.736;2022-12-07T05:56:43;20.33;;;14.38;;
54959;SDS011;40860;51.710;8.736;2022-12-07T06:00:46;27.02;;;15.70;;
54959;SDS011;40860;51.710;8.736;2022-12-07T06:04:53;24.35;;;14.65;;
54959;SDS011;40860;51.710;8.736;2022-12-07T06:08:56;24.42;;;14.50;;
54959;SDS011;40860;51.710;8.736;2022-12-07T06:12:59;24.08;;;13.82;;
54959;SDS011;40860;51.710;8.736;2022-12-07T06:17:02;22.52;;;14.65;;
54959;SDS011;40860;51.710;8.736;2022-12-07T06:21:07;25.30;;;14.90;;
54959;SDS011;40860;51.710;8.736;2022-12-07T06:25:09;27.02;;;14.68;;
54959;SDS011;40860;51.710;8.736;2022-12-07T06:29:12;22.80;;;14.52;;
54959;SDS011;40860;51.710;8.736;2022-12-07T06:33:16;25.33;;;16.10;;
54959;SDS011;40860;51.710;8.736;2022-12-07T06:37:26;26.08;;;15.98;;
54959;SDS011;40860;51.710;8.736;2022-12-07T06:41:29;29.38;;;20.20;;
54959;SDS011;40860;51.710;8.736;2022-12-07T06:45:32;31.52;;;19.33;;
54959;SDS011;40860;51.710;8.736;2022-12-07T06:49:34;30.02;;;19.13;;
54959;SDS011;40860;51.710;8.736;2022-12-07T06:53:39;26.83;;;18.23;;
54959;SDS011;40860;51.710;8.736;2022-12-07T06:57:41;31.92;;;18.95;;
54959;SDS011;40860;51.710;8.736;2022-12-07T07:01:44;23.67;;;15.80;;
54959;SDS011;40860;51.710;8.736;2022-12-07T07:05:47;29.00;;;15.40;;
54959;SDS011;40860;51.710;8.736;2022-12-07T07:09:52;27.73;;;18.40;;
54959;SDS011;40860;51.710;8.736;2022-12-07T07:13:55;25.40;;;15.90;;
54959;SDS011;40860;51.710;8.736;2022-12-07T07:18:03;26.52;;;15.50;;
54959;SDS011;40860;51.710;8.736;2022-12-07T07:22:17;28.25;;;18.25;;
54959;SDS011;40860;51.710;8.736;2022-12-07T07:26:21;34.35;;;21.13;;
54959;SDS011;40860;51.710;8.736;2022-12-07T07:30:24;34.05;;;20.85;;
54959;SDS011;40860;51.710;8.736;2022-12-07T07:34:28;29.25;;;18.05;;
54959;SDS011;40860;51.710;8.736;2022-12-07T07:38:30;34.42;;;20.70;;
54959;SDS011;40860;51.710;8.736;2022-12-07T07:42:34;26.30;;;16.50;;
54959;SDS011;40860;51.710;8.736;2022-12-07T07:46:37;26.70;;;14.30;;
54959;SDS011;40860;51.710;8.736;2022-12-07T07:50:40;24.35;;;14.00;;
54959;SDS011;40860;51.710;8.736;2022-12-07T07:54:43;22.20;;;13.70;;
54959;SDS011;40860;51.710;8.736;2022-12-07T07:58:47;22.90;;;14.63;;
54959;SDS011;40860;51.710;8.736;2022-12-07T08:02:53;27.90;;;13.85;;
54959;SDS011;40860;51.710;8.736;2022-12-07T08:06:56;26.08;;;14.07;;
54959;SDS011;40860;51.710;8.736;2022-12-07T08:10:59;28.40;;;15.10;;
54959;SDS011;40860;51.710;8.736;2022-12-07T08:15:04;21.75;;;13.73;;
54959;SDS011;40860;51.710;8.736;2022-12-07T08:19:08;24.42;;;12.85;;
54959;SDS011;40860;51.710;8.736;2022-12-07T08:23:11;22.67;;;12.75;;
54959;SDS011;40860;51.710;8.736;2022-12-07T08:27:14;27.77;;;14.10;;
54959;SDS011;40860;51.710;8.736;2022-12-07T08:31:18;22.00;;;13.10;;
54959;SDS011;40860;51.710;8.736;2022-12-07T08:35:21;23.48;;;13.10;;
54959;SDS011;40860;51.710;8.736;2022-12-07T08:39:25;23.75;;;13.90;;
54959;SDS011;40860;51.710;8.736;2022-12-07T08:43:33;22.67;;;12.93;;
54959;SDS011;40860;51.710;8.736;2022-12-07T08:47:39;21.88;;;12.45;;
54959;SDS011;40860;51.710;8.736;2022-12-07T08:51:44;23.55;;;12.25;;
54959;SDS011;40860;51.710;8.736;2022-12-07T08:55:47;21.10;;;12.02;;
54959;SDS011;40860;51.710;8.736;2022-12-07T08:59:51;27.48;;;12.73;;
54959;SDS011;40860;51.710;8.736;2022-12-07T09:03:55;17.05;;;11.13;;
54959;SDS011;40860;51.710;8.736;2022-12-07T09:07:59;19.50;;;11.95;;
54959;SDS011;40860;51.710;8.736;2022-12-07T09:12:03;16.65;;;10.32;;
54959;SDS011;40860;51.710;8.736;2022-12-07T09:16:06;22.45;;;11.07;;
54959;SDS011;40860;51.710;8.736;2022-12-07T09:20:11;20.00;;;9.85;;
54959;SDS011;40860;51.710;8.736;2022-12-07T09:24:14;17.88;;;10.70;;
54959;SDS011;40860;51.710;8.736;2022-12-07T09:28:17;18.38;;;9.90;;
54959;SDS011;40860;51.710;8.736;2022-12-07T09:32:20;17.17;;;9.35;;
54959;SDS011;40860;51.710;8.736;2022-12-07T09:36:25;13.65;;;9.07;;
54959;SDS011;40860;51.710;8.736;2022-12-07T09:40:29;15.40;;;9.48;;
54959;SDS011;40860;51.710;8.736;2022-12-07T09:44:32;18.92;;;9.75;;
54959;SDS011;40860;51.710;8.736;2022-12-07T09:48:36;17.80;;;9.75;;
54959;SDS011;40860;51.710;8.736;2022-12-07T09:52:43;16.42;;;9.65;;
54959;SDS011;40860;51.710;8.736;2022-12-07T09:56:48;16.67;;;9.07;;
54959;SDS011;40860;51.710;8.736;2022-12-07T10:00:52;15.50;;;8.88;;
54959;SDS011;40860;51.710;8.736;2022-12-07T10:04:58;16.00;;;8.82;;
54959;SDS011;40860;51.710;8.736;2022-12-07T10:09:09;15.18;;;8.75;;
54959;SDS011;40860;51.710;8.736;2022-12-07T10:13:13;12.95;;;8.50;;
54959;SDS011;40860;51.710;8.736;2022-12-07T10:17:26;15.40;;;8.27;;
54959;SDS011;40860;51.710;8.736;2022-12-07T10:21:33;14.57;;;7.95;;
54959;SDS011;40860;51.710;8.736;2022-12-07T10:25:37;16.63;;;8.02;;
54959;SDS011;40860;51.710;8.736;2022-12-07T10:29:42;13.77;;;8.15;;
54959;SDS011;40860;51.710;8.736;2022-12-07T10:33:51;16.83;;;8.55;;
54959;SDS011;40860;51.710;8.736;2022-12-07T10:37:56;13.85;;;8.48;;
54959;SDS011;40860;51.710;8.736;2022-12-07T10:42:03;15.43;;;8.73;;
54959;SDS011;40860;51.710;8.736;2022-12-07T10:46:13;15.68;;;8.02;;
54959;SDS011;40860;51.710;8.736;2022-12-07T10:50:37;17.98;;;8.13;;
54959;SDS011;40860;51.710;8.736;2022-12-07T10:55:01;14.18;;;8.20;;
54959;SDS011;40860;51.710;8.736;2022-12-07T11:03:53;12.40;;;7.90;;
54959;SDS011;40860;51.710;8.736;2022-12-07T11:08:10;13.55;;;9.27;;
54959;SDS011;40860;51.710;8.736;2022-12-07T11:12:22;13.13;;;8.02;;
54959;SDS011;40860;51.710;8.736;2022-12-07T11:16:37;14.30;;;7.80;;
54959;SDS011;40860;51.710;8.736;2022-12-07T11:20:50;15.13;;;8.45;;
54959;SDS011;40860;51.710;8.736;2022-12-07T11:25:00;11.80;;;8.13;;
54959;SDS011;40860;51.710;8.736;2022-12-07T11:33:45;12.98;;;6.93;;
54959;SDS011;40860;51.710;8.736;2022-12-07T11:37:57;14.13;;;7.78;;
54959;SDS011;40860;51.710;8.736;2022-12-07T11:42:04;10.85;;;7.32;;
54959;SDS011;40860;51.710;8.736;2022-12-07T11:46:12;13.32;;;7.53;;
54959;SDS011;40860;51.710;8.736;2022-12-07T11:50:23;10.88;;;7.25;;
54959;SDS011;40860;51.710;8.736;2022-12-07T11:54:29;13.90;;;7.35;;
54959;SDS011;40860;51.710;8.736;2022-12-07T11:58:42;12.70;;;7.80;;
54959;SDS011;40860;51.710;8.736;2022-12-07T12:02:51;12.15;;;7.25;;
54959;SDS011;40860;51.710;8.736;2022-12-07T12:07:01;16.08;;;7.05;;
54959;SDS011;40860;51.710;8.736;2022-12-07T12:11:32;15.75;;;6.32;;
54959;SDS011;40860;51.710;8.736;2022-12-07T12:15:51;12.02;;;6.82;;
54959;SDS011;40860;51.710;8.736;2022-12-07T12:20:05;10.75;;;6.18;;
54959;SDS011;40860;51.710;8.736;2022-12-07T12:24:20;11.52;;;6.28;;
54959;SDS011;40860;51.710;8.736;2022-12-07T12:28:27;10.32;;;6.43;;
54959;SDS011;40860;51.710;8.736;2022-12-07T12:32:36;13.05;;;6.53;;
54959;SDS011;40860;51.710;8.736;2022-12-07T12:36:45;10.77;;;5.78;;
54959;SDS011;40860;51.710;8.736;2022-12-07T12:40:51;9.32;;;5.40;;
54959;SDS011;40860;51.710;8.736;2022-12-07T12:49:33;10.38;;;5.03;;
54959;SDS011;40860;51.710;8.736;2022-12-07T12:53:44;9.27;;;4.85;;
54959;SDS011;40860;51.710;8.736;2022-12-07T13:02:31;10.63;;;4.82;;
54959;SDS011;40860;51.710;8.736;2022-12-07T13:06:36;11.13;;;5.13;;
54959;SDS011;40860;51.710;8.736;2022-12-07T13:10:44;9.15;;;5.32;;
54959;SDS011;40860;51.710;8.736;2022-12-07T13:14:53;9.80;;;4.53;;
54959;SDS011;40860;51.710;8.736;2022-12-07T13:18:58;7.25;;;4.18;;
54959;SDS011;40860;51.710;8.736;2022-12-07T13:23:01;12.10;;;4.20;;
54959;SDS011;40860;51.710;8.736;2022-12-07T13:27:06;8.95;;;4.22;;
54959;SDS011;40860;51.710;8.736;2022-12-07T13:35:37;10.05;;;5.28;;
54959;SDS011;40860;51.710;8.736;2022-12-07T13:39:44;8.52;;;3.95;;
54959;SDS011;40860;51.710;8.736;2022-12-07T13:43:49;10.70;;;4.57;;
54959;SDS011;40860;51.710;8.736;2022-12-07T13:47:56;7.80;;;5.22;;
54959;SDS011;40860;51.710;8.736;2022-12-07T13:52:13;8.93;;;5.10;;
54959;SDS011;40860;51.710;8.736;2022-12-07T13:56:20;8.63;;;4.53;;
54959;SDS011;40860;51.710;8.736;2022-12-07T14:00:25;9.68;;;4.38;;
54959;SDS011;40860;51.710;8.736;2022-12-07T14:04:32;8.80;;;4.32;;
54959;SDS011;40860;51.710;8.736;2022-12-07T14:08:36;9.20;;;4.07;;
54959;SDS011;40860;51.710;8.736;2022-12-07T14:12:39;10.63;;;3.97;;
54959;SDS011;40860;51.710;8.736;2022-12-07T14:16:55;13.05;;;4.00;;
54959;SDS011;40860;51.710;8.736;2022-12-07T14:21:04;9.93;;;4.20;;
54959;SDS011;40860;51.710;8.736;2022-12-07T14:25:19;8.13;;;4.00;;
54959;SDS011;40860;51.710;8.736;2022-12-07T14:29:29;9.05;;;4.28;;
54959;SDS011;40860;51.710;8.736;2022-12-07T14:33:35;6.82;;;3.67;;
54959;SDS011;40860;51.710;8.736;2022-12-07T14:37:41;5.93;;;3.22;;
54959;SDS011;40860;51.710;8.736;2022-12-07T14:41:44;6.78;;;4.00;;
54959;SDS011;40860;51.710;8.736;2022-12-07T14:45:53;9.27;;;3.60;;
54959;SDS011;40860;51.710;8.736;2022-12-07T14:49:57;7.63;;;3.47;;
54959;SDS011;40860;51.710;8.736;2022-12-07T14:54:09;10.27;;;3.90;;
54959;SDS011;40860;51.710;8.736;2022-12-07T14:58:17;9.05;;;4.22;;
54959;SDS011;40860;51.710;8.736;2022-12-07T15:02:21;7.65;;;4.10;;
54959;SDS011;40860;51.710;8.736;2022-12-07T15:06:24;8.18;;;4.47;;
54959;SDS011;40860;51.710;8.736;2022-12-07T15:10:29;9.68;;;3.63;;
54959;SDS011;40860;51.710;8.736;2022-12-07T15:14:33;10.93;;;4.55;;
54959;SDS011;40860;51.710;8.736;2022-12-07T15:18:36;6.20;;;4.07;;
54959;SDS011;40860;51.710;8.736;2022-12-07T15:22:49;8.73;;;4.55;;
54959;SDS011;40860;51.710;8.736;2022-12-07T15:26:53;8.35;;;4.38;;
54959;SDS011;40860;51.710;8.736;2022-12-07T15:30:56;7.07;;;3.92;;
54959;SDS011;40860;51.710;8.736;2022-12-07T15:35:17;14.15;;;4.65;;
54959;SDS011;40860;51.710;8.736;2022-12-07T15:39:22;9.13;;;5.18;;
54959;SDS011;40860;51.710;8.736;2022-12-07T15:43:26;10.32;;;6.20;;
54959;SDS011;40860;51.710;8.736;2022-12-07T15:47:47;11.82;;;6.35;;
54959;SDS011;40860;51.710;8.736;2022-12-07T15:52:10;10.77;;;6.22;;
54959;SDS011;40860;51.710;8.736;2022-12-07T15:56:13;12.07;;;6.45;;
54959;SDS011;40860;51.710;8.736;2022-12-07T16:00:20;13.57;;;7.22;;
54959;SDS011;40860;51.710;8.736;2022-12-07T16:04:23;12.05;;;6.05;;
54959;SDS011;40860;51.710;8.736;2022-12-07T16:08:26;11.93;;;6.30;;
54959;SDS011;40860;51.710;8.736;2022-12-07T16:12:36;11.18;;;6.20;;
54959;SDS011;40860;51.710;8.736;2022-12-07T16:16:41;10.50;;;6.00;;
54959;SDS011;40860;51.710;8.736;2022-12-07T16:20:47;12.88;;;7.65;;
54959;SDS011;40860;51.710;8.736;2022-12-07T16:24:50;13.73;;;7.10;;
54959;SDS011;40860;51.710;8.736;2022-12-07T16:28:56;10.93;;;6.45;;
54959;SDS011;40860;51.710;8.736;2022-12-07T16:33:06;13.57;;;6.50;;
54959;SDS011;40860;51.710;8.736;2022-12-07T16:37:09;13.77;;;6.97;;
54959;SDS011;40860;51.710;8.736;2022-12-07T16:41:12;14.88;;;6.60;;
54959;SDS011;40860;51.710;8.736;2022-12-07T16:45:19;11.65;;;6.55;;
54959;SDS011;40860;51.710;8.736;2022-12-07T16:49:23;12.18;;;5.72;;
54959;SDS011;40860;51.710;8.736;2022-12-07T16:53:27;11.10;;;6.70;;
54959;SDS011;40860;51.710;8.736;2022-12-07T16:57:30;13.60;;;7.00;;
54959;SDS011;40860;51.710;8.736;2022-12-07T17:01:33;12.88;;;6.50;;
54959;SDS011;40860;51.710;8.736;2022-12-07T17:05:39;12.20;;;6.20;;
54959;SDS011;40860;51.710;8.736;2022-12-07T17:09:42;10.52;;;6.10;;
54959;SDS011;40860;51.710;8.736;2022-12-07T17:13:45;10.25;;;6.68;;
54959;SDS011;40860;51.710;8.736;2022-12-07T17:18:06;14.50;;;6.60;;
54959;SDS011;40860;51.710;8.736;2022-12-07T17:22:10;12.70;;;6.78;;
54959;SDS011;40860;51.710;8.736;2022-12-07T17:26:14;14.20;;;8.00;;
54959;SDS011;40860;51.710;8.736;2022-12-07T17:30:19;11.25;;;6.88;;
54959;SDS011;40860;51.710;8.736;2022-12-07T17:34:21;11.35;;;6.43;;
54959;SDS011;40860;51.710;8.736;2022-12-07T17:38:27;11.25;;;6.63;;
54959;SDS011;40860;51.710;8.736;2022-12-07T17:42:30;10.15;;;5.97;;
54959;SDS011;40860;51.710;8.736;2022-12-07T17:46:40;10.30;;;6.43;;
54959;SDS011;40860;51.710;8.736;2022-12-07T17:50:44;10.02;;;6.68;;
54959;SDS011;40860;51.710;8.736;2022-12-07T17:55:06;14.25;;;6.47;;
54959;SDS011;40860;51.710;8.736;2022-12-07T17:59:09;11.93;;;7.20;;
54959;SDS011;40860;51.710;8.736;2022-12-07T18:03:13;13.73;;;6.88;;
54959;SDS011;40860;51.710;8.736;2022-12-07T18:07:16;13.60;;;7.45;;
54959;SDS011;40860;51.710;8.736;2022-12-07T18:11:20;13.45;;;7.22;;
54959;SDS011;40860;51.710;8.736;2022-12-07T18:15:24;12.13;;;7.95;;
54959;SDS011;40860;51.710;8.736;2022-12-07T18:19:27;16.98;;;9.50;;
54959;SDS011;40860;51.710;8.736;2022-12-07T18:23:30;12.75;;;9.25;;
54959;SDS011;40860;51.710;8.736;2022-12-07T18:27:35;17.42;;;9.13;;
54959;SDS011;40860;51.710;8.736;2022-12-07T18:31:38;18.02;;;10.02;;
54959;SDS011;40860;51.710;8.736;2022-12-07T18:35:41;17.85;;;10.23;;
54959;SDS011;40860;51.710;8.736;2022-12-07T18:39:44;19.50;;;10.30;;
54959;SDS011;40860;51.710;8.736;2022-12-07T18:43:48;15.57;;;10.77;;
54959;SDS011;40860;51.710;8.736;2022-12-07T18:47:51;15.77;;;10.90;;
54959;SDS011;40860;51.710;8.736;2022-12-07T18:51:54;18.98;;;11.93;;
54959;SDS011;40860;51.710;8.736;2022-12-07T18:56:00;16.40;;;11.45;;
54959;SDS011;40860;51.710;8.736;2022-12-07T19:00:06;21.10;;;11.95;;
54959;SDS011;40860;51.710;8.736;2022-12-07T19:04:10;18.65;;;12.02;;
54959;SDS011;40860;51.710;8.736;2022-12-07T19:08:13;20.63;;;11.80;;
54959;SDS011;40860;51.710;8.736;2022-12-07T19:12:16;17.15;;;12.32;;
54959;SDS011;40860;51.710;8.736;2022-12-07T19:16:20;25.13;;;13.00;;
54959;SDS011;40860;51.710;8.736;2022-12-07T19:20:23;23.30;;;13.05;;
54959;SDS011;40860;51.710;8.736;2022-12-07T19:24:26;20.75;;;14.13;;
54959;SDS011;40860;51.710;8.736;2022-12-07T19:28:30;17.17;;;13.32;;
54959;SDS011;40860;51.710;8.736;2022-12-07T19:32:35;19.58;;;14.20;;
54959;SDS011;40860;51.710;8.736;2022-12-07T19:36:38;16.50;;;11.27;;
54959;SDS011;40860;51.710;8.736;2022-12-07T19:40:41;19.83;;;12.80;;
54959;SDS011;40860;51.710;8.736;2022-12-07T19:44:44;16.35;;;10.95;;
54959;SDS011;40860;51.710;8.736;2022-12-07T19:48:48;17.73;;;11.20;;
54959;SDS011;40860;51.710;8.736;2022-12-07T19:52:51;17.08;;;11.82;;
54959;SDS011;40860;51.710;8.736;2022-12-07T19:56:56;13.80;;;10.70;;
54959;SDS011;40860;51.710;8.736;2022-12-07T20:01:01;15.10;;;11.75;;
54959;SDS011;40860;51.710;8.736;2022-12-07T20:05:05;16.75;;;11.05;;
54959;SDS011;40860;51.710;8.736;2022-12-07T20:09:09;17.90;;;11.60;;
54959;SDS011;40860;51.710;8.736;2022-12-07T20:13:12;16.40;;;10.50;;
54959;SDS011;40860;51.710;8.736;2022-12-07T20:17:31;18.52;;;11.23;;
54959;SDS011;40860;51.710;8.736;2022-12-07T20:21:36;15.40;;;10.00;;
54959;SDS011;40860;51.710;8.736;2022-12-07T20:25:40;16.17;;;9.88;;
54959;SDS011;40860;51.710;8.736;2022-12-07T20:29:42;14.32;;;10.00;;
54959;SDS011;40860;51.710;8.736;2022-12-07T20:33:46;17.27;;;10.05;;
54959;SDS011;40860;51.710;8.736;2022-12-07T20:37:50;18.33;;;10.45;;
54959;SDS011;40860;51.710;8.736;2022-12-07T20:41:53;18.02;;;10.63;;
54959;SDS011;40860;51.710;8.736;2022-12-07T20:46:14;13.02;;;10.35;;
54959;SDS011;40860;51.710;8.736;2022-12-07T20:50:17;18.67;;;11.07;;
54959;SDS011;40860;51.710;8.736;2022-12-07T20:54:21;18.60;;;11.50;;
54959;SDS011;40860;51.710;8.736;2022-12-07T20:58:24;21.75;;;12.23;;
54959;SDS011;40860;51.710;8.736;2022-12-07T21:02:29;15.65;;;11.60;;
54959;SDS011;40860;51.710;8.736;2022-12-07T21:06:32;18.92;;;12.55;;
54959;SDS011;40860;51.710;8.736;2022-12-07T21:10:37;17.60;;;12.25;;
54959;SDS011;40860;51.710;8.736;2022-12-07T21:14:40;19.15;;;13.20;;
54959;SDS011;40860;51.710;8.736;2022-12-07T21:18:43;19.65;;;12.98;;
54959;SDS011;40860;51.710;8.736;2022-12-07T21:22:48;17.38;;;12.20;;
54959;SDS011;40860;51.710;8.736;2022-12-07T21:26:52;18.90;;;12.88;;
54959;SDS011;40860;51.710;8.736;2022-12-07T21:30:55;22.50;;;14.45;;
54959;SDS011;40860;51.710;8.736;2022-12-07T21:35:14;19.75;;;14.52;;
54959;SDS011;40860;51.710;8.736;2022-12-07T21:39:16;24.80;;;15.40;;
54959;SDS011;40860;51.710;8.736;2022-12-07T21:43:21;26.73;;;15.70;;
54959;SDS011;40860;51.710;8.736;2022-12-07T21:47:24;22.98;;;16.23;;
54959;SDS011;40860;51.710;8.736;2022-12-07T21:51:27;24.08;;;15.00;;
54959;SDS011;40860;51.710;8.736;2022-12-07T21:55:31;24.52;;;16.08;;
54959;SDS011;40860;51.710;8.736;2022-12-07T21:59:35;24.45;;;17.00;;
54959;SDS011;40860;51.710;8.736;2022-12-07T22:03:38;23.55;;;15.50;;
54959;SDS011;40860;51.710;8.736;2022-12-07T22:07:41;22.20;;;15.45;;
54959;SDS011;40860;51.710;8.736;2022-12-07T22:11:45;22.17;;;14.27;;
54959;SDS011;40860;51.710;8.736;2022-12-07T22:15:49;21.88;;;14.95;;
54959;SDS011;40860;51.710;8.736;2022-12-07T22:19:52;18.95;;;15.20;;
54959;SDS011;40860;51.710;8.736;2022-12-07T22:23:57;22.60;;;14.85;;
54959;SDS011;40860;51.710;8.736;2022-12-07T22:28:00;20.77;;;15.60;;
54959;SDS011;40860;51.710;8.736;2022-12-07T22:32:04;21.80;;;15.00;;
54959;SDS011;40860;51.710;8.736;2022-12-07T22:36:27;21.27;;;15.57;;
54959;SDS011;40860;51.710;8.736;2022-12-07T22:40:30;22.25;;;16.33;;
54959;SDS011;40860;51.710;8.736;2022-12-07T22:44:33;26.42;;;17.40;;
54959;SDS011;40860;51.710;8.736;2022-12-07T22:48:37;24.83;;;16.70;;
54959;SDS011;40860;51.710;8.736;2022-12-07T22:52:40;22.33;;;16.27;;
54959;SDS011;40860;51.710;8.736;2022-12-07T22:56:43;25.40;;;17.33;;
54959;SDS011;40860;51.710;8.736;2022-12-07T23:00:46;24.55;;;16.77;;
54959;SDS011;40860;51.710;8.736;2022-12-07T23:04:50;23.42;;;17.00;;
54959;SDS011;40860;51.710;8.736;2022-12-07T23:08:54;26.25;;;18.27;;
54959;SDS011;40860;51.710;8.736;2022-12-07T23:12:58;24.98;;;18.05;;
54959;SDS011;40860;51.710;8.736;2022-12-07T23:17:19;26.35;;;17.35;;
54959;SDS011;40860;51.710;8.736;2022-12-07T23:21:23;30.60;;;18.92;;
54959;SDS011;40860;51.710;8.736;2022-12-07T23:25:26;30.02;;;19.00;;
54959;SDS011;40860;51.710;8.736;2022-12-07T23:29:29;32.85;;;20.02;;
54959;SDS011;40860;51.710;8.736;2022-12-07T23:33:32;33.65;;;20.48;;
54959;SDS011;40860;51.710;8.736;2022-12-07T23:37:36;27.73;;;19.10;;
54959;SDS011;40860;51.710;8.736;2022-12-07T23:41:39;33.20;;;20.63;;
54959;SDS011;40860;51.710;8.736;2022-12-07T23:45:43;32.78;;;20.33;;
54959;SDS011;40860;51.710;8.736;2022-12-07T23:49:47;32.70;;;19.73;;
54959;SDS011;40860;51.710;8.736;2022-12-07T23:53:51;34.85;;;22.08;;
54959;SDS011;40860;51.710;8.736;2022-12-07T23:57:55;33.63;;;20.80;;
